createdAt,value
2019-04-20T00:00:46.200Z,77.30
2019-04-20T00:03:23.621Z,77.20
2019-04-20T00:06:06.956Z,77.50
2019-04-20T00:08:55.733Z,78.00
2019-04-20T00:11:47.051Z,78.30
2019-04-20T00:14:24.604Z,79.00
2019-04-20T00:17:03.540Z,79.90
2019-04-20T00:19:50.674Z,80.10
2019-04-20T00:22:48.630Z,78.70
2019-04-20T00:26:05.655Z,75.90
2019-04-20T00:28:55.861Z,75.90
2019-04-20T00:31:39.299Z,74.90
2019-04-20T00:34:13.921Z,73.70
2019-04-20T00:36:49.898Z,73.40
2019-04-20T00:39:38.157Z,72.30
2019-04-20T00:42:34.047Z,72.00
2019-04-20T00:45:16.243Z,72.90
2019-04-20T00:48:02.668Z,73.80
2019-04-20T00:51:05.726Z,74.10
2019-04-20T00:53:36.267Z,73.30
2019-04-20T00:56:14.089Z,73.40
2019-04-20T00:59:09.233Z,74.40
2019-04-20T01:02:01.050Z,70.90
2019-04-20T01:05:06.117Z,71.00
2019-04-20T01:07:49.651Z,70.60
2019-04-20T01:10:27.266Z,71.10
2019-04-20T01:13:15.151Z,70.80
2019-04-20T01:15:55.177Z,70.60
2019-04-20T01:18:27.628Z,71.60
2019-04-20T01:21:17.814Z,70.70
2019-04-20T01:23:59.562Z,70.90
2019-04-20T01:26:44.591Z,69.90
2019-04-20T01:29:24.984Z,69.10
2019-04-20T01:32:22.562Z,70.00
2019-04-20T01:35:04.441Z,68.60
2019-04-20T01:37:57.523Z,67.80
2019-04-20T01:40:25.372Z,68.00
2019-04-20T01:43:10.609Z,68.30
2019-04-20T01:46:00.203Z,68.40
2019-04-20T01:48:35.039Z,67.70
2019-04-20T01:51:19.562Z,68.90
2019-04-20T01:54:23.523Z,68.70
2019-04-20T01:56:59.238Z,68.30
2019-04-20T01:59:52.262Z,68.10
2019-04-20T02:02:26.637Z,68.20
2019-04-20T02:05:16.657Z,67.70
2019-04-20T02:08:02.053Z,67.60
2019-04-20T02:10:50.935Z,67.90
2019-04-20T02:13:37.258Z,67.70
2019-04-20T02:16:22.872Z,67.50
2019-04-20T02:19:16.282Z,68.70
2019-04-20T02:21:55.340Z,68.30
2019-04-20T02:24:27.827Z,68.60
2019-04-20T02:27:08.585Z,69.60
2019-04-20T02:30:14.348Z,69.70
2019-04-20T02:33:40.134Z,68.70
2019-04-20T02:36:24.723Z,68.10
2019-04-20T02:41:58.275Z,68.30
2019-04-20T02:44:49.939Z,70.10
2019-04-20T02:47:30.754Z,70.30
2019-04-20T02:50:14.398Z,70.30
2019-04-20T02:53:04.467Z,69.60
2019-04-20T02:55:41.959Z,70.80
2019-04-20T02:58:23.274Z,70.00
2019-04-20T03:00:58.584Z,70.90
2019-04-20T03:03:30.653Z,70.50
2019-04-20T03:06:17.180Z,70.50
2019-04-20T03:09:10.105Z,69.80
2019-04-20T03:11:59.629Z,70.60
2019-04-20T03:14:30.450Z,70.10
2019-04-20T03:17:25.884Z,72.30
2019-04-20T03:19:57.366Z,71.00
2019-04-20T03:23:14.281Z,71.40
2019-04-20T03:25:49.719Z,71.00
2019-04-20T03:28:32.535Z,71.30
2019-04-20T03:34:40.956Z,71.80
2019-04-20T03:36:49.546Z,72.50
2019-04-20T03:39:27.702Z,72.60
2019-04-20T03:41:52.472Z,72.90
2019-04-20T03:44:35.783Z,73.10
2019-04-20T03:47:26.895Z,74.20
2019-04-20T03:50:29.318Z,73.20
2019-04-20T03:53:20.205Z,74.00
2019-04-20T03:56:34.893Z,73.20
2019-04-20T03:59:20.811Z,72.00
2019-04-20T04:02:37.887Z,72.30
2019-04-20T04:05:23.825Z,71.80
2019-04-20T04:08:01.846Z,73.80
2019-04-20T04:10:56.102Z,72.10
2019-04-20T04:13:35.542Z,70.80
2019-04-20T04:16:21.568Z,71.10
2019-04-20T04:19:08.967Z,69.90
2019-04-20T04:21:59.104Z,70.50
2019-04-20T04:24:34.419Z,71.20
2019-04-20T04:27:36.441Z,71.60
2019-04-20T04:30:14.433Z,72.30
2019-04-20T04:35:51.634Z,70.70
2019-04-20T04:38:46.043Z,71.70
2019-04-20T04:41:36.440Z,70.70
2019-04-20T04:44:03.105Z,70.10
2019-04-20T04:46:33.955Z,71.40
2019-04-20T04:49:24.195Z,70.70
2019-04-20T04:52:05.179Z,71.10
2019-04-20T04:55:35.278Z,71.10
2019-04-20T04:58:08.810Z,70.10
2019-04-20T05:00:49.137Z,70.40
2019-04-20T05:04:21.614Z,70.30
2019-04-20T05:06:58.408Z,70.40
2019-04-20T05:09:25.680Z,69.80
2019-04-20T05:12:18.775Z,70.00
2019-04-20T05:15:06.123Z,69.60
2019-04-20T05:17:57.490Z,69.30
2019-04-20T05:20:47.445Z,70.30
2019-04-20T05:27:30.130Z,71.60
2019-04-20T05:29:56.935Z,70.00
2019-04-20T05:32:48.268Z,70.00
2019-04-20T05:35:44.406Z,69.40
2019-04-20T05:38:35.467Z,69.80
2019-04-20T05:41:11.753Z,69.60
2019-04-20T05:44:17.235Z,69.40
2019-04-20T05:47:18.225Z,68.50
2019-04-20T05:50:27.676Z,68.80
2019-04-20T05:56:32.769Z,67.70
2019-04-20T05:59:12.726Z,67.90
2019-04-20T06:02:03.450Z,67.90
2019-04-20T06:05:02.178Z,68.30
2019-04-20T06:07:29.663Z,67.50
2019-04-20T06:10:28.390Z,67.70
2019-04-20T06:13:06.366Z,68.10
2019-04-20T06:16:39.004Z,67.90
2019-04-20T06:19:26.377Z,70.50
2019-04-20T06:22:28.455Z,68.40
2019-04-20T06:25:45.253Z,67.10
2019-04-20T06:28:23.201Z,67.90
2019-04-20T06:31:11.280Z,67.50
2019-04-20T06:34:30.484Z,67.20
2019-04-20T06:37:10.203Z,67.00
2019-04-20T06:40:26.227Z,67.80
2019-04-20T06:42:53.470Z,67.50
2019-04-20T06:45:35.010Z,67.70
2019-04-20T06:48:21.497Z,68.50
2019-04-20T06:51:04.646Z,68.50
2019-04-20T06:53:48.730Z,67.70
2019-04-20T06:56:42.030Z,68.80
2019-04-20T06:59:36.058Z,68.70
2019-04-20T07:02:21.910Z,68.60
2019-04-20T07:05:00.003Z,69.60
2019-04-20T07:07:48.043Z,68.50
2019-04-20T07:10:51.696Z,68.10
2019-04-20T07:13:27.438Z,68.60
2019-04-20T07:16:40.863Z,68.90
2019-04-20T07:19:34.922Z,69.00
2019-04-20T07:22:34.693Z,68.20
2019-04-20T07:25:26.746Z,67.90
2019-04-20T07:28:15.639Z,69.10
2019-04-20T07:31:15.850Z,68.60
2019-04-20T07:34:05.715Z,68.20
2019-04-20T07:37:09.861Z,66.70
2019-04-20T07:39:40.506Z,67.40
2019-04-20T07:42:40.802Z,67.70
2019-04-20T07:48:21.010Z,65.70
2019-04-20T07:51:03.531Z,65.50
2019-04-20T07:53:59.511Z,63.80
2019-04-20T07:56:50.893Z,64.00
2019-04-20T07:59:23.361Z,64.40
2019-04-20T08:02:42.506Z,65.00
2019-04-20T08:05:39.175Z,65.90
2019-04-20T08:08:32.575Z,64.70
2019-04-20T08:11:15.321Z,65.90
2019-04-20T08:19:54.425Z,64.40
2019-04-20T08:22:46.638Z,64.90
2019-04-20T08:25:17.825Z,65.00
2019-04-20T08:28:28.458Z,64.50
2019-04-20T08:31:37.101Z,64.40
2019-04-20T08:34:33.622Z,66.70
2019-04-20T08:37:11.154Z,66.90
2019-04-20T08:40:32.074Z,66.30
2019-04-20T08:43:38.308Z,65.30
2019-04-20T08:46:11.812Z,64.30
2019-04-20T08:48:57.100Z,64.30
2019-04-20T08:51:49.740Z,64.80
2019-04-20T08:54:40.545Z,65.70
2019-04-20T08:57:15.623Z,65.20
2019-04-20T09:00:04.680Z,65.30
2019-04-20T09:03:00.884Z,66.00
2019-04-20T09:05:56.997Z,65.50
2019-04-20T09:08:46.574Z,64.90
2019-04-20T09:11:42.036Z,64.20
2019-04-20T09:17:36.921Z,65.40
2019-04-20T09:20:22.814Z,64.50
2019-04-20T09:23:25.128Z,65.10
2019-04-20T09:26:10.186Z,65.10
2019-04-20T09:29:12.748Z,65.40
2019-04-20T09:32:04.413Z,65.60
2019-04-20T09:34:46.497Z,65.10
2019-04-20T09:37:55.774Z,65.90
2019-04-20T09:40:35.032Z,65.40
2019-04-20T09:43:21.795Z,65.80
2019-04-20T09:46:06.865Z,65.70
2019-04-20T09:48:51.347Z,66.90
2019-04-20T09:51:49.998Z,66.10
2019-04-20T09:54:39.959Z,66.70
2019-04-20T09:57:25.297Z,65.80
2019-04-20T10:00:08.684Z,66.80
2019-04-20T10:02:46.282Z,66.60
2019-04-20T10:05:33.685Z,66.70
2019-04-20T10:08:17.501Z,65.90
2019-04-20T10:11:09.770Z,66.10
2019-04-20T10:13:54.409Z,66.30
2019-04-20T10:16:39.936Z,66.30
2019-04-20T10:19:26.616Z,66.60
2019-04-20T10:22:13.403Z,66.80
2019-04-20T10:24:57.785Z,67.10
2019-04-20T10:27:49.468Z,67.60
2019-04-20T10:30:34.781Z,67.10
2019-04-20T10:33:27.759Z,67.50
2019-04-20T10:36:37.656Z,67.20
2019-04-20T10:39:30.715Z,66.40
2019-04-20T10:42:16.340Z,66.90
2019-04-20T10:45:08.665Z,65.60
2019-04-20T10:48:05.421Z,66.10
2019-04-20T10:50:47.282Z,67.10
2019-04-20T10:53:36.682Z,67.20
2019-04-20T10:56:33.724Z,66.60
2019-04-20T10:59:17.045Z,66.10
2019-04-20T11:01:56.460Z,66.00
2019-04-20T11:04:46.488Z,67.40
2019-04-20T11:07:30.417Z,68.10
2019-04-20T11:10:15.754Z,68.20
2019-04-20T11:12:52.571Z,67.70
2019-04-20T11:15:34.966Z,66.90
2019-04-20T11:18:33.430Z,68.30
2019-04-20T11:21:15.429Z,67.20
2019-04-20T11:23:56.158Z,66.80
2019-04-20T11:26:39.929Z,67.20
2019-04-20T11:29:28.544Z,66.60
2019-04-20T11:32:14.126Z,66.80
2019-04-20T11:35:11.044Z,66.50
2019-04-20T11:37:57.349Z,66.40
2019-04-20T11:41:13.451Z,67.80
2019-04-20T11:43:55.752Z,67.50
2019-04-20T11:46:48.405Z,65.90
2019-04-20T11:49:39.668Z,66.30
2019-04-20T11:52:42.192Z,66.00
2019-04-20T11:55:20.736Z,66.60
2019-04-20T11:58:01.741Z,65.60
2019-04-20T12:00:57.542Z,65.90
2019-04-20T12:03:53.040Z,66.00
2019-04-20T12:06:32.679Z,65.90
2019-04-20T12:09:26.398Z,66.50
2019-04-20T12:12:22.334Z,66.80
2019-04-20T12:15:00.850Z,67.30
2019-04-20T12:17:41.759Z,66.10
2019-04-20T12:20:50.781Z,66.30
2019-04-20T12:23:44.428Z,66.10
2019-04-20T12:26:42.748Z,69.50
2019-04-20T12:29:30.375Z,68.70
2019-04-20T12:32:12.608Z,69.00
2019-04-20T12:34:56.040Z,67.80
2019-04-20T12:37:39.137Z,67.10
2019-04-20T12:40:32.462Z,67.00
2019-04-20T12:43:20.324Z,66.30
2019-04-20T12:46:32.424Z,67.00
2019-04-20T12:49:23.396Z,66.50
2019-04-20T12:52:05.104Z,66.10
2019-04-20T12:54:50.360Z,66.70
2019-04-20T12:57:42.791Z,66.60
2019-04-20T13:01:22.843Z,66.10
2019-04-20T13:04:14.408Z,65.60
2019-04-20T13:07:10.104Z,65.80
2019-04-20T13:10:07.772Z,66.70
2019-04-20T13:13:16.551Z,67.40
2019-04-20T13:16:18.362Z,67.90
2019-04-20T13:19:05.550Z,67.30
2019-04-20T13:21:57.182Z,67.30
2019-04-20T13:24:43.176Z,66.70
2019-04-20T13:30:41.903Z,66.00
2019-04-20T13:33:41.162Z,67.00
2019-04-20T13:36:28.477Z,66.60
2019-04-20T13:39:20.799Z,66.50
2019-04-20T13:42:23.281Z,66.10
2019-04-20T13:45:21.258Z,66.50
2019-04-20T13:48:19.245Z,66.70
2019-04-20T13:51:04.154Z,65.90
2019-04-20T13:54:13.037Z,65.20
2019-04-20T13:56:53.481Z,65.60
2019-04-20T13:59:58.051Z,66.20
2019-04-20T14:03:16.586Z,66.40
2019-04-20T14:06:39.372Z,66.30
2019-04-20T14:09:27.652Z,66.70
2019-04-20T14:12:53.358Z,67.70
2019-04-20T14:15:15.705Z,66.40
2019-04-20T14:18:04.908Z,66.00
2019-04-20T14:20:47.830Z,65.90
2019-04-20T14:23:41.057Z,66.10
2019-04-20T14:26:48.838Z,66.70
2019-04-20T14:29:43.159Z,66.80
2019-04-20T14:32:27.095Z,67.00
2019-04-20T14:35:47.031Z,67.10
2019-04-20T14:41:35.837Z,67.50
2019-04-20T14:44:25.647Z,67.30
2019-04-20T14:47:05.592Z,67.50
2019-04-20T14:52:53.384Z,67.90
2019-04-20T14:56:01.756Z,68.10
2019-04-20T14:59:17.793Z,67.20
2019-04-20T15:02:17.188Z,67.00
2019-04-20T15:05:01.388Z,66.80
2019-04-20T15:07:46.910Z,66.50
2019-04-20T15:10:40.616Z,67.00
2019-04-20T15:13:30.785Z,67.00
2019-04-20T15:16:16.961Z,67.40
2019-04-20T15:22:53.829Z,67.40
2019-04-20T15:25:46.352Z,67.50
2019-04-20T15:28:34.705Z,67.50
2019-04-20T15:31:22.064Z,66.90
2019-04-20T15:34:11.146Z,66.80
2019-04-20T15:37:09.895Z,67.50
2019-04-20T15:40:01.179Z,67.40
2019-04-20T15:42:54.996Z,67.60
2019-04-20T15:45:41.235Z,67.90
2019-04-20T15:48:41.732Z,67.90
2019-04-20T15:51:27.827Z,68.50
2019-04-20T15:57:25.731Z,67.70
2019-04-20T16:00:18.408Z,67.60
2019-04-20T16:03:19.163Z,68.00
2019-04-20T16:06:16.937Z,68.20
2019-04-20T16:12:02.667Z,68.50
2019-04-20T16:14:45.803Z,68.70
2019-04-20T16:17:38.465Z,69.20
2019-04-20T16:20:25.040Z,68.70
2019-04-20T16:23:08.687Z,68.80
2019-04-20T16:26:17.989Z,68.80
2019-04-20T16:29:13.353Z,68.70
2019-04-20T16:32:00.412Z,69.10
2019-04-20T16:35:00.245Z,69.10
2019-04-20T16:38:02.455Z,68.80
2019-04-20T16:40:56.579Z,69.00
2019-04-20T16:43:43.221Z,69.10
2019-04-20T16:46:42.477Z,69.00
2019-04-20T16:49:30.622Z,69.10
2019-04-20T16:52:21.285Z,69.50
2019-04-20T16:55:05.920Z,69.40
2019-04-20T16:57:53.327Z,69.50
2019-04-20T17:00:43.460Z,69.50
2019-04-20T17:03:38.153Z,69.30
2019-04-20T17:06:09.973Z,69.20
2019-04-20T17:08:57.203Z,69.40
2019-04-20T17:11:45.720Z,69.50
2019-04-20T17:14:33.863Z,68.40
2019-04-20T17:17:17.932Z,68.00
2019-04-20T17:20:13.546Z,68.40
2019-04-20T17:23:04.907Z,68.80
2019-04-20T17:25:46.083Z,68.70
2019-04-20T17:28:44.872Z,68.80
2019-04-20T17:31:51.464Z,68.90
2019-04-20T17:34:53.871Z,69.20
2019-04-20T17:37:39.978Z,69.00
2019-04-20T17:40:35.364Z,68.60
2019-04-20T17:43:16.042Z,68.10
2019-04-20T17:45:55.982Z,68.30
2019-04-20T17:48:45.150Z,68.50
2019-04-20T17:51:47.315Z,68.60
2019-04-20T17:54:31.331Z,69.00
2019-04-20T17:57:17.253Z,69.20
2019-04-20T18:00:17.181Z,69.40
2019-04-20T18:03:20.797Z,69.40
2019-04-20T18:06:18.362Z,69.40
2019-04-20T18:08:59.875Z,69.30
2019-04-20T18:11:40.310Z,69.20
2019-04-20T18:14:38.390Z,69.50
2019-04-20T18:18:07.176Z,69.90
2019-04-20T18:20:40.802Z,69.80
2019-04-20T18:23:28.115Z,69.80
2019-04-20T18:26:28.783Z,70.00
2019-04-20T18:29:10.417Z,69.90
2019-04-20T18:31:41.681Z,69.90
2019-04-20T18:34:29.131Z,70.00
2019-04-20T18:37:16.732Z,70.10
2019-04-20T18:39:59.693Z,70.30
2019-04-20T18:42:55.957Z,70.50
2019-04-20T18:45:46.821Z,70.30
2019-04-20T18:48:40.465Z,70.70
2019-04-20T18:50:59.719Z,71.90
2019-04-20T18:53:44.426Z,71.10
2019-04-20T18:56:41.446Z,71.20
2019-04-20T18:59:23.407Z,70.80
2019-04-20T19:02:22.098Z,70.50
2019-04-20T19:05:01.551Z,70.60
2019-04-20T19:07:51.543Z,70.80
2019-04-20T19:10:28.836Z,70.60
2019-04-20T19:13:20.298Z,70.70
2019-04-20T19:16:29.993Z,70.30
2019-04-20T19:19:33.118Z,70.80
2019-04-20T19:22:14.191Z,69.90
2019-04-20T19:24:57.983Z,69.80
2019-04-20T19:27:46.327Z,69.40
2019-04-20T19:30:32.517Z,68.80
2019-04-20T19:33:18.998Z,69.30
2019-04-20T19:35:56.139Z,69.30
2019-04-20T19:38:38.862Z,69.70
2019-04-20T19:41:25.433Z,69.80
2019-04-20T19:44:10.003Z,69.40
2019-04-20T19:47:05.241Z,69.70
2019-04-20T19:49:39.376Z,69.90
2019-04-20T19:52:39.585Z,70.20
2019-04-20T19:55:10.533Z,69.50
2019-04-20T19:57:53.685Z,69.00
2019-04-20T20:00:22.856Z,69.10
2019-04-20T20:03:03.588Z,69.50
2019-04-20T20:05:47.997Z,69.80
2019-04-20T20:08:33.093Z,69.70
2019-04-20T20:11:21.781Z,70.40
2019-04-20T20:13:55.450Z,69.70
2019-04-20T20:16:56.198Z,68.90
2019-04-20T20:19:32.700Z,68.90
2019-04-20T20:22:13.185Z,69.00
2019-04-20T20:24:41.081Z,68.70
2019-04-20T20:27:31.767Z,69.20
2019-04-20T20:30:12.519Z,69.20
2019-04-20T20:33:08.525Z,69.40
2019-04-20T20:35:45.435Z,69.60
2019-04-20T20:38:28.038Z,70.00
2019-04-20T20:41:10.323Z,70.10
2019-04-20T20:43:53.950Z,70.30
2019-04-20T20:46:32.759Z,70.30
2019-04-20T20:49:40.321Z,70.50
2019-04-20T20:52:22.079Z,70.20
2019-04-20T20:55:00.770Z,70.10
2019-04-20T20:57:44.900Z,70.10
2019-04-20T21:00:28.250Z,70.20
2019-04-20T21:03:05.505Z,70.20
2019-04-20T21:05:43.446Z,70.30
2019-04-20T21:08:25.874Z,69.80
2019-04-20T21:11:13.115Z,70.00
2019-04-20T21:13:59.314Z,70.10
2019-04-20T21:16:46.831Z,70.20
2019-04-20T21:19:35.564Z,69.80
2019-04-20T21:22:08.456Z,69.00
2019-04-20T21:24:51.328Z,69.10
2019-04-20T21:27:32.983Z,69.20
2019-04-20T21:30:18.328Z,69.50
2019-04-20T21:33:03.367Z,69.60
2019-04-20T21:35:48.240Z,69.60
2019-04-20T21:38:35.514Z,69.70
2019-04-20T21:41:16.505Z,69.70
2019-04-20T21:43:54.009Z,69.70
2019-04-20T21:46:39.637Z,69.90
2019-04-20T21:49:31.132Z,69.30
2019-04-20T21:52:01.665Z,69.60
2019-04-20T21:54:43.939Z,69.70
2019-04-20T22:04:02.686Z,69.80
2019-04-20T22:06:44.825Z,69.80
2019-04-20T22:09:37.143Z,70.00
2019-04-20T22:12:09.804Z,69.60
2019-04-20T22:14:58.967Z,69.60
2019-04-20T22:17:36.378Z,69.60
2019-04-20T22:20:26.748Z,69.70
2019-04-20T22:23:10.603Z,69.80
2019-04-20T22:25:55.221Z,69.70
2019-04-20T22:28:26.444Z,70.10
2019-04-20T22:31:06.231Z,70.20
2019-04-20T22:33:47.306Z,70.20
2019-04-20T22:36:34.408Z,70.20
2019-04-20T22:39:33.251Z,70.30
2019-04-20T22:42:13.339Z,70.40
2019-04-20T22:44:57.528Z,70.30
2019-04-20T22:47:35.704Z,69.70
2019-04-20T22:50:34.225Z,70.20
2019-04-20T22:53:22.665Z,69.80
2019-04-20T22:56:16.739Z,70.00
2019-04-20T22:58:50.262Z,70.00
2019-04-20T23:01:31.265Z,70.90
2019-04-20T23:04:01.086Z,70.50
2019-04-20T23:06:49.786Z,70.50
2019-04-20T23:09:32.365Z,70.40
2019-04-20T23:12:17.778Z,70.50
2019-04-20T23:15:02.815Z,70.10
2019-04-20T23:17:50.322Z,70.20
2019-04-20T23:20:32.676Z,71.00
2019-04-20T23:23:18.158Z,70.70
2019-04-20T23:25:58.877Z,70.70
2019-04-20T23:28:48.277Z,71.10
2019-04-20T23:31:29.025Z,72.10
2019-04-20T23:34:16.137Z,70.90
2019-04-20T23:36:56.748Z,70.30
2019-04-20T23:39:41.522Z,70.80
2019-04-20T23:42:33.575Z,71.50
2019-04-20T23:45:33.282Z,71.50
2019-04-20T23:48:14.245Z,71.90
2019-04-20T23:51:10.287Z,72.10
2019-04-20T23:53:56.677Z,72.40
2019-04-20T23:56:32.023Z,72.30
2019-04-20T23:59:19.080Z,71.50
